createdAt,value
2023-03-19T00:02:17.192Z,98057.03
2023-03-19T00:04:46.188Z,98065.25
2023-03-19T00:07:14.908Z,98060.88
2023-03-19T00:09:44.249Z,98057.63
2023-03-19T00:12:12.054Z,98059.47
2023-03-19T00:14:38.646Z,98064.00
2023-03-19T00:17:05.201Z,98060.22
2023-03-19T00:19:31.654Z,98065.00
2023-03-19T00:22:02.111Z,98065.56
2023-03-19T00:24:29.084Z,98063.84
2023-03-19T00:26:55.943Z,98063.75
2023-03-19T00:29:23.325Z,98066.25
2023-03-19T00:31:50.576Z,98073.63
2023-03-19T00:34:19.932Z,98064.66
2023-03-19T00:36:47.004Z,98061.25
2023-03-19T00:39:13.513Z,98065.59
2023-03-19T00:41:40.574Z,98058.50
2023-03-19T00:44:07.944Z,98063.78
2023-03-19T00:46:34.413Z,98069.06
2023-03-19T00:49:07.942Z,98061.38
2023-03-19T00:51:34.419Z,98066.13
2023-03-19T00:54:00.833Z,98061.78
2023-03-19T00:56:27.282Z,98067.41
2023-03-19T00:58:53.751Z,98069.13
2023-03-19T01:01:20.259Z,98075.16
2023-03-19T01:03:47.428Z,98071.75
2023-03-19T01:06:16.440Z,98074.44
2023-03-19T01:08:43.016Z,98078.38
2023-03-19T01:11:14.305Z,98081.34
2023-03-19T01:13:42.297Z,98078.97
2023-03-19T01:16:11.539Z,98081.22
2023-03-19T01:18:38.293Z,98079.53
2023-03-19T01:21:05.292Z,98081.25
2023-03-19T01:23:31.908Z,98081.22
2023-03-19T01:25:58.347Z,98089.13
2023-03-19T01:28:24.948Z,98085.72
2023-03-19T01:30:54.992Z,98084.78
2023-03-19T01:33:23.119Z,98084.56
2023-03-19T01:35:51.397Z,98078.47
2023-03-19T01:38:18.106Z,98083.88
2023-03-19T01:40:46.152Z,98084.88
2023-03-19T01:43:17.794Z,98079.66
2023-03-19T01:45:45.448Z,98086.69
2023-03-19T01:48:35.004Z,98090.13
2023-03-19T01:51:01.870Z,98082.28
2023-03-19T01:53:32.881Z,98081.63
2023-03-19T01:56:24.510Z,98080.88
2023-03-19T01:58:56.610Z,98079.31
2023-03-19T02:01:23.503Z,98081.63
2023-03-19T02:03:52.991Z,98083.84
2023-03-19T02:06:23.747Z,98084.06
2023-03-19T02:08:51.735Z,98087.63
2023-03-19T02:11:19.177Z,98078.94
2023-03-19T02:13:46.945Z,98081.47
2023-03-19T02:16:16.952Z,98084.06
2023-03-19T02:18:44.327Z,98079.41
2023-03-19T02:21:17.541Z,98080.09
2023-03-19T02:24:13.075Z,98086.81
2023-03-19T02:26:43.220Z,98079.91
2023-03-19T02:29:09.900Z,98087.00
2023-03-19T02:31:37.118Z,98085.47
2023-03-19T02:34:26.625Z,98092.66
2023-03-19T02:37:02.912Z,98084.38
2023-03-19T02:39:49.504Z,98093.44
2023-03-19T02:42:18.585Z,98083.31
2023-03-19T02:44:46.256Z,98098.53
2023-03-19T02:47:12.793Z,98105.00
2023-03-19T02:49:39.268Z,98105.44
2023-03-19T02:52:05.799Z,98108.97
2023-03-19T02:54:38.905Z,98117.25
2023-03-19T02:57:05.617Z,98110.47
2023-03-19T02:59:32.141Z,98106.22
2023-03-19T03:01:58.726Z,98110.69
2023-03-19T03:04:26.373Z,98110.63
2023-03-19T03:06:52.851Z,98106.47
2023-03-19T03:09:19.515Z,98099.19
2023-03-19T03:11:46.127Z,98101.00
2023-03-19T03:14:12.611Z,98100.63
2023-03-19T03:16:39.157Z,98101.41
2023-03-19T03:19:05.945Z,98095.47
2023-03-19T03:21:35.462Z,98095.59
2023-03-19T03:24:03.365Z,98103.13
2023-03-19T03:26:29.790Z,98099.81
2023-03-19T03:28:56.825Z,98097.16
2023-03-19T03:31:23.374Z,98101.81
2023-03-19T03:33:50.342Z,98099.28
2023-03-19T03:36:17.580Z,98107.16
2023-03-19T03:38:45.544Z,98105.38
2023-03-19T03:41:14.132Z,98104.97
2023-03-19T03:43:41.150Z,98117.13
2023-03-19T03:46:08.746Z,98108.22
2023-03-19T03:48:35.852Z,98109.00
2023-03-19T03:51:03.253Z,98112.50
2023-03-19T03:53:30.316Z,98112.50
2023-03-19T03:56:00.861Z,98113.25
2023-03-19T03:58:27.973Z,98118.16
2023-03-19T04:00:55.509Z,98112.78
2023-03-19T04:03:22.516Z,98122.63
2023-03-19T04:05:49.043Z,98118.63
2023-03-19T04:08:15.949Z,98125.31
2023-03-19T04:10:46.043Z,98121.88
2023-03-19T04:13:13.170Z,98124.59
2023-03-19T04:15:51.357Z,98120.94
2023-03-19T04:18:17.808Z,98114.72
2023-03-19T04:20:44.290Z,98114.72
2023-03-19T04:23:10.980Z,98109.38
2023-03-19T04:25:41.174Z,98115.41
2023-03-19T04:28:11.340Z,98119.66
2023-03-19T04:30:38.187Z,98116.94
2023-03-19T04:33:04.948Z,98115.94
2023-03-19T04:35:31.749Z,98118.06
2023-03-19T04:37:58.250Z,98118.59
2023-03-19T04:40:25.137Z,98116.88
2023-03-19T04:42:52.753Z,98122.34
2023-03-19T04:45:21.672Z,98125.66
2023-03-19T04:47:48.150Z,98121.97
2023-03-19T04:50:14.773Z,98126.75
2023-03-19T04:52:41.651Z,98127.69
2023-03-19T04:55:08.934Z,98134.81
2023-03-19T04:57:36.927Z,98139.28
2023-03-19T05:00:03.662Z,98136.22
2023-03-19T05:02:30.062Z,98132.25
2023-03-19T05:04:56.581Z,98128.56
2023-03-19T05:07:22.999Z,98117.59
2023-03-19T05:09:50.102Z,98118.94
2023-03-19T05:12:21.432Z,98117.66
2023-03-19T05:14:48.043Z,98122.75
2023-03-19T05:17:15.596Z,98128.28
2023-03-19T05:19:42.439Z,98123.78
2023-03-19T05:22:08.966Z,98126.56
2023-03-19T05:24:35.441Z,98122.84
2023-03-19T05:27:07.582Z,98117.59
2023-03-19T05:29:34.316Z,98133.44
2023-03-19T05:32:03.166Z,98128.38
2023-03-19T05:34:30.133Z,98133.91
2023-03-19T05:36:56.589Z,98144.22
2023-03-19T05:39:24.813Z,98136.53
2023-03-19T05:41:51.605Z,98134.72
2023-03-19T05:44:18.127Z,98133.34
2023-03-19T05:46:44.747Z,98139.50
2023-03-19T05:49:11.201Z,98141.28
2023-03-19T05:51:37.646Z,98148.34
2023-03-19T05:54:05.705Z,98148.25
2023-03-19T05:56:33.120Z,98146.78
2023-03-19T05:58:59.588Z,98147.69
2023-03-19T06:01:36.804Z,98139.81
2023-03-19T06:04:05.610Z,98146.84
2023-03-19T06:06:32.716Z,98145.06
2023-03-19T06:08:59.327Z,98148.41
2023-03-19T06:11:25.906Z,98148.25
2023-03-19T06:13:54.670Z,98154.19
2023-03-19T06:16:21.347Z,98160.25
2023-03-19T06:18:47.814Z,98157.22
2023-03-19T06:21:14.279Z,98157.72
2023-03-19T06:23:40.765Z,98169.63
2023-03-19T06:26:07.318Z,98161.41
2023-03-19T06:28:41.582Z,98156.75
2023-03-19T06:31:08.145Z,98161.53
2023-03-19T06:33:34.697Z,98169.28
2023-03-19T06:36:01.472Z,98173.28
2023-03-19T06:38:28.061Z,98172.00
2023-03-19T06:40:57.128Z,98173.28
2023-03-19T06:43:27.484Z,98172.00
2023-03-19T06:45:54.196Z,98170.84
2023-03-19T06:48:20.758Z,98170.47
2023-03-19T06:50:47.225Z,98175.16
2023-03-19T06:53:14.901Z,98178.19
2023-03-19T06:55:47.864Z,98179.97
2023-03-19T06:58:14.412Z,98192.97
2023-03-19T07:00:41.382Z,98183.22
2023-03-19T07:03:08.459Z,98186.44
2023-03-19T07:05:34.956Z,98197.59
2023-03-19T07:08:03.757Z,98211.34
2023-03-19T07:10:30.960Z,98202.44
2023-03-19T07:12:57.444Z,98211.94
2023-03-19T07:15:23.865Z,98217.00
2023-03-19T07:17:50.376Z,98220.41
2023-03-19T07:20:17.031Z,98229.97
2023-03-19T07:22:50.795Z,98222.75
2023-03-19T07:25:17.441Z,98227.00
2023-03-19T07:27:44.966Z,98229.50
2023-03-19T07:30:12.924Z,98230.22
2023-03-19T07:32:39.529Z,98229.06
2023-03-19T07:35:16.746Z,98233.09
2023-03-19T07:37:43.223Z,98232.44
2023-03-19T07:40:10.487Z,98234.16
2023-03-19T07:42:37.012Z,98228.81
2023-03-19T07:45:11.014Z,98233.03
2023-03-19T07:47:40.248Z,98230.47
2023-03-19T07:50:07.967Z,98231.94
2023-03-19T07:52:34.519Z,98223.53
2023-03-19T07:55:01.649Z,98222.44
2023-03-19T07:57:32.924Z,98222.09
2023-03-19T07:59:59.842Z,98224.91
2023-03-19T08:02:26.430Z,98226.50
2023-03-19T08:04:52.991Z,98228.34
2023-03-19T08:07:20.259Z,98233.78
2023-03-19T08:09:46.739Z,98233.44
2023-03-19T08:12:21.310Z,98235.84
2023-03-19T08:14:47.817Z,98235.59
2023-03-19T08:17:14.310Z,98233.03
2023-03-19T08:19:40.837Z,98233.50
2023-03-19T08:22:07.405Z,98231.34
2023-03-19T08:24:39.237Z,98242.88
2023-03-19T08:27:05.807Z,98246.38
2023-03-19T08:29:32.323Z,98240.56
2023-03-19T08:32:00.715Z,98240.00
2023-03-19T08:34:27.308Z,98244.00
2023-03-19T08:36:56.028Z,98239.16
2023-03-19T08:39:22.479Z,98244.97
2023-03-19T08:41:48.926Z,98247.94
2023-03-19T08:44:16.366Z,98248.22
2023-03-19T08:46:42.866Z,98246.56
2023-03-19T08:49:11.902Z,98249.78
2023-03-19T08:51:38.434Z,98246.25
2023-03-19T08:54:04.971Z,98257.03
2023-03-19T08:56:31.421Z,98254.34
2023-03-19T08:58:58.044Z,98253.66
2023-03-19T09:01:24.755Z,98263.97
2023-03-19T09:03:51.267Z,98261.06
2023-03-19T09:06:17.837Z,98271.63
2023-03-19T09:08:44.815Z,98277.28
2023-03-19T09:11:11.659Z,98274.19
2023-03-19T09:13:38.276Z,98278.81
2023-03-19T09:16:05.914Z,98280.31
2023-03-19T09:18:33.544Z,98280.44
2023-03-19T09:21:00.840Z,98285.16
2023-03-19T09:23:28.123Z,98278.28
2023-03-19T09:25:55.012Z,98283.25
2023-03-19T09:28:22.993Z,98275.22
2023-03-19T09:30:51.679Z,98289.13
2023-03-19T09:33:20.330Z,98291.47
2023-03-19T09:35:57.344Z,98298.63
2023-03-19T09:38:24.208Z,98291.34
2023-03-19T09:41:08.319Z,98301.06
2023-03-19T09:43:51.961Z,98303.09
2023-03-19T09:46:23.571Z,98301.38
2023-03-19T09:49:00.067Z,98306.66
2023-03-19T09:51:35.868Z,98301.88
2023-03-19T09:54:07.667Z,98308.38
2023-03-19T09:56:34.267Z,98303.66
2023-03-19T09:59:01.102Z,98310.22
2023-03-19T10:01:34.238Z,98308.06
2023-03-19T10:04:54.895Z,98311.34
2023-03-19T10:07:27.557Z,98304.50
2023-03-19T10:10:22.450Z,98308.66
2023-03-19T10:13:00.344Z,98312.44
2023-03-19T10:15:37.891Z,98313.34
2023-03-19T10:18:14.651Z,98318.47
2023-03-19T10:21:00.098Z,98319.94
2023-03-19T10:23:34.975Z,98321.13
2023-03-19T10:26:05.512Z,98318.81
2023-03-19T10:28:32.244Z,98325.53
2023-03-19T10:31:14.912Z,98323.00
2023-03-19T10:33:52.149Z,98328.94
2023-03-19T10:36:22.362Z,98325.59
2023-03-19T10:38:48.876Z,98322.06
2023-03-19T10:41:41.218Z,98320.09
2023-03-19T10:44:17.216Z,98341.34
2023-03-19T10:46:43.782Z,98326.50
2023-03-19T10:49:15.103Z,98315.81
2023-03-19T10:51:49.104Z,98327.94
2023-03-19T10:54:24.524Z,98328.06
2023-03-19T10:56:54.891Z,98318.50
2023-03-19T10:59:26.855Z,98320.91
2023-03-19T11:02:15.744Z,98322.34
2023-03-19T11:04:42.229Z,98315.38
2023-03-19T11:07:22.289Z,98329.16
2023-03-19T11:09:51.539Z,98327.47
2023-03-19T11:12:26.977Z,98330.69
2023-03-19T11:14:57.550Z,98334.03
2023-03-19T11:17:26.459Z,98329.13
2023-03-19T11:19:58.145Z,98315.81
2023-03-19T11:22:37.115Z,98327.03
2023-03-19T11:25:19.536Z,98331.31
2023-03-19T11:28:01.181Z,98331.81
2023-03-19T11:30:36.892Z,98330.81
2023-03-19T11:33:39.042Z,98327.34
2023-03-19T11:36:09.218Z,98340.72
2023-03-19T11:39:00.479Z,98326.09
2023-03-19T11:41:27.366Z,98320.69
2023-03-19T11:44:14.741Z,98325.34
2023-03-19T11:46:55.608Z,98312.34
2023-03-19T11:49:53.501Z,98313.94
2023-03-19T11:52:28.360Z,98313.31
2023-03-19T11:55:35.671Z,98303.34
2023-03-19T11:58:25.619Z,98305.84
2023-03-19T12:00:55.191Z,98308.28
2023-03-19T12:03:51.006Z,98299.81
2023-03-19T12:06:43.529Z,98300.44
2023-03-19T12:09:39.490Z,98294.44
2023-03-19T12:12:33.947Z,98294.81
2023-03-19T12:15:15.690Z,98288.91
2023-03-19T12:18:20.364Z,98295.53
2023-03-19T12:21:06.655Z,98287.28
2023-03-19T12:24:03.560Z,98280.34
2023-03-19T12:26:32.683Z,98287.56
2023-03-19T12:29:18.486Z,98288.69
2023-03-19T12:32:02.301Z,98293.22
2023-03-19T12:34:36.580Z,98287.06
2023-03-19T12:37:37.761Z,98292.19
2023-03-19T12:40:22.376Z,98279.63
2023-03-19T12:42:49.090Z,98285.59
2023-03-19T12:45:35.252Z,98286.91
2023-03-19T12:48:10.329Z,98278.41
2023-03-19T12:50:41.707Z,98280.22
2023-03-19T12:53:16.915Z,98279.38
2023-03-19T12:55:49.747Z,98283.25
2023-03-19T12:58:46.944Z,98277.94
2023-03-19T13:01:25.149Z,98281.59
2023-03-19T13:04:03.367Z,98272.75
2023-03-19T13:06:41.363Z,98277.97
2023-03-19T13:09:20.234Z,98279.19
2023-03-19T13:12:01.588Z,98276.50
2023-03-19T13:14:38.312Z,98278.63
2023-03-19T13:17:15.208Z,98270.31
2023-03-19T13:19:54.361Z,98285.00
2023-03-19T13:22:32.263Z,98279.06
2023-03-19T13:25:00.910Z,98270.75
2023-03-19T13:27:31.898Z,98269.03
2023-03-19T13:30:07.437Z,98274.19
2023-03-19T13:32:50.853Z,98275.41
2023-03-19T13:35:32.216Z,98269.88
2023-03-19T13:38:27.849Z,98272.56
2023-03-19T13:40:59.272Z,98273.06
2023-03-19T13:43:29.136Z,98266.31
2023-03-19T13:46:15.983Z,98265.22
2023-03-19T13:48:45.556Z,98265.97
2023-03-19T13:51:18.159Z,98261.34
2023-03-19T13:54:12.670Z,98259.91
2023-03-19T13:57:01.521Z,98258.25
2023-03-19T13:59:29.774Z,98253.94
2023-03-19T14:01:57.774Z,98247.97
2023-03-19T14:04:36.716Z,98242.28
2023-03-19T14:07:15.490Z,98245.44
2023-03-19T14:09:44.870Z,98237.13
2023-03-19T14:12:23.527Z,98244.38
2023-03-19T14:14:52.459Z,98242.75
2023-03-19T14:17:25.237Z,98243.31
2023-03-19T14:19:53.148Z,98239.13
2023-03-19T14:22:40.086Z,98247.25
2023-03-19T14:25:18.684Z,98237.13
2023-03-19T14:27:48.241Z,98238.84
2023-03-19T14:30:34.625Z,98237.44
2023-03-19T14:33:08.512Z,98233.84
2023-03-19T14:35:46.037Z,98235.06
2023-03-19T14:38:30.373Z,98229.72
2023-03-19T14:41:01.093Z,98231.47
2023-03-19T14:43:52.658Z,98228.28
2023-03-19T14:46:50.202Z,98231.56
2023-03-19T14:49:51.387Z,98235.94
2023-03-19T14:52:26.631Z,98233.22
2023-03-19T14:55:00.948Z,98232.28
2023-03-19T14:57:30.605Z,98225.09
2023-03-19T15:00:00.592Z,98232.75
2023-03-19T15:02:35.073Z,98232.34
2023-03-19T15:05:07.740Z,98232.41
2023-03-19T15:07:49.163Z,98238.34
2023-03-19T15:10:21.265Z,98235.63
2023-03-19T15:13:09.706Z,98230.53
2023-03-19T15:15:59.570Z,98228.53
2023-03-19T15:18:27.346Z,98230.53
2023-03-19T15:20:55.506Z,98234.59
2023-03-19T15:23:27.937Z,98234.03
2023-03-19T15:26:01.124Z,98230.78
2023-03-19T15:28:36.358Z,98225.50
2023-03-19T15:31:28.390Z,98228.59
2023-03-19T15:33:53.553Z,98235.25
2023-03-19T15:36:30.587Z,98233.53
2023-03-19T15:39:11.410Z,98230.41
2023-03-19T15:41:44.515Z,98229.25
2023-03-19T15:44:18.968Z,98226.13
2023-03-19T15:46:47.182Z,98234.53
2023-03-19T15:49:23.184Z,98238.72
2023-03-19T15:51:53.642Z,98235.84
2023-03-19T15:54:21.002Z,98246.94
2023-03-19T15:56:50.508Z,98243.34
2023-03-19T15:59:20.582Z,98247.53
2023-03-19T16:01:47.325Z,98278.25
2023-03-19T16:04:22.035Z,98279.44
2023-03-19T16:06:50.825Z,98277.19
2023-03-19T16:09:24.146Z,98282.72
2023-03-19T16:11:53.032Z,98298.56
2023-03-19T16:14:35.335Z,98303.34
2023-03-19T16:17:13.093Z,98310.75
2023-03-19T16:19:52.542Z,98311.22
2023-03-19T16:22:29.789Z,98326.81
2023-03-19T16:24:57.449Z,98327.38
2023-03-19T16:27:40.793Z,98341.38
2023-03-19T16:30:22.603Z,98359.31
2023-03-19T16:33:06.464Z,98361.19
2023-03-19T16:35:34.991Z,98368.03
2023-03-19T16:38:18.781Z,98372.88
2023-03-19T16:40:49.196Z,98372.53
2023-03-19T16:43:22.467Z,98382.75
2023-03-19T16:46:10.846Z,98383.84
2023-03-19T16:48:37.433Z,98379.00
2023-03-19T16:51:05.178Z,98375.13
2023-03-19T16:53:32.126Z,98370.59
2023-03-19T16:56:00.822Z,98367.09
2023-03-19T16:58:40.734Z,98355.91
2023-03-19T17:01:27.340Z,98356.19
2023-03-19T17:03:54.130Z,98345.72
2023-03-19T17:06:22.108Z,98347.59
2023-03-19T17:08:48.568Z,98347.78
2023-03-19T17:11:35.236Z,98356.78
2023-03-19T17:14:03.437Z,98362.78
2023-03-19T17:16:30.222Z,98363.78
2023-03-19T17:19:07.274Z,98359.31
2023-03-19T17:21:34.194Z,98358.78
2023-03-19T17:24:25.995Z,98361.50
2023-03-19T17:26:53.078Z,98360.53
2023-03-19T17:29:20.851Z,98359.69
2023-03-19T17:31:48.073Z,98358.91
2023-03-19T17:34:26.839Z,98356.34
2023-03-19T17:37:10.419Z,98360.94
2023-03-19T17:39:39.186Z,98372.41
2023-03-19T17:42:25.436Z,98359.50
2023-03-19T17:44:52.198Z,98356.19
2023-03-19T17:47:19.090Z,98360.75
2023-03-19T17:49:46.164Z,98358.25
2023-03-19T17:52:17.713Z,98368.28
2023-03-19T17:54:45.044Z,98365.69
2023-03-19T17:57:13.993Z,98365.69
2023-03-19T17:59:40.630Z,98359.75
2023-03-19T18:02:23.141Z,98360.75
2023-03-19T18:04:52.010Z,98361.66
2023-03-19T18:07:19.047Z,98362.00
2023-03-19T18:09:45.865Z,98369.22
2023-03-19T18:12:12.278Z,98362.25
2023-03-19T18:14:38.717Z,98377.38
2023-03-19T18:17:05.349Z,98389.66
2023-03-19T18:19:34.939Z,98381.41
2023-03-19T18:22:02.325Z,98381.31
2023-03-19T18:24:28.806Z,98385.63
2023-03-19T18:26:55.379Z,98387.47
2023-03-19T18:29:21.838Z,98385.84
2023-03-19T18:31:50.391Z,98398.97
2023-03-19T18:34:17.851Z,98391.22
2023-03-19T18:36:44.395Z,98400.06
2023-03-19T18:39:13.913Z,98393.25
2023-03-19T18:41:41.037Z,98406.25
2023-03-19T18:44:08.676Z,98400.94
2023-03-19T18:46:37.279Z,98402.66
2023-03-19T18:49:07.046Z,98402.72
2023-03-19T18:51:35.869Z,98407.81
2023-03-19T18:54:02.430Z,98406.25
2023-03-19T18:56:33.467Z,98414.06
2023-03-19T18:59:01.038Z,98420.34
2023-03-19T19:01:29.883Z,98430.91
2023-03-19T19:03:56.503Z,98427.44
2023-03-19T19:06:40.062Z,98422.19
2023-03-19T19:09:12.787Z,98425.66
2023-03-19T19:11:45.788Z,98424.47
2023-03-19T19:14:21.932Z,98425.97
2023-03-19T19:16:49.152Z,98430.09
2023-03-19T19:19:19.139Z,98422.91
2023-03-19T19:21:46.496Z,98425.34
2023-03-19T19:24:14.921Z,98432.19
2023-03-19T19:26:48.991Z,98420.78
2023-03-19T19:29:28.367Z,98432.09
2023-03-19T19:32:04.026Z,98432.84
2023-03-19T19:34:30.570Z,98429.31
2023-03-19T19:37:00.287Z,98428.44
2023-03-19T19:39:27.039Z,98426.75
2023-03-19T19:41:56.817Z,98427.72
2023-03-19T19:44:23.341Z,98431.25
2023-03-19T19:46:53.298Z,98436.53
2023-03-19T19:49:21.515Z,98430.44
2023-03-19T19:51:47.951Z,98436.53
2023-03-19T19:54:14.375Z,98442.50
2023-03-19T19:56:41.487Z,98439.91
2023-03-19T19:59:13.809Z,98439.16
2023-03-19T20:01:40.480Z,98438.31
2023-03-19T20:04:07.029Z,98445.28
2023-03-19T20:06:36.532Z,98442.41
2023-03-19T20:09:03.048Z,98452.94
2023-03-19T20:11:31.386Z,98462.47
2023-03-19T20:13:57.948Z,98460.88
2023-03-19T20:16:26.629Z,98460.94
2023-03-19T20:18:55.944Z,98464.94
2023-03-19T20:21:24.066Z,98468.06
2023-03-19T20:23:55.234Z,98462.47
2023-03-19T20:26:24.046Z,98466.47
2023-03-19T20:28:51.517Z,98462.06
2023-03-19T20:31:27.939Z,98472.75
2023-03-19T20:33:54.429Z,98469.09
2023-03-19T20:36:21.053Z,98480.59
2023-03-19T20:38:50.961Z,98480.66
2023-03-19T20:41:20.723Z,98483.25
2023-03-19T20:43:47.986Z,98476.31
2023-03-19T20:46:15.980Z,98475.53
2023-03-19T20:48:45.065Z,98478.03
2023-03-19T20:51:19.445Z,98472.75
2023-03-19T20:53:53.740Z,98487.69
2023-03-19T20:56:24.826Z,98479.91
2023-03-19T20:58:51.788Z,98486.19
2023-03-19T21:01:18.608Z,98485.28
2023-03-19T21:03:45.333Z,98486.06
2023-03-19T21:06:18.460Z,98481.88
2023-03-19T21:08:47.712Z,98482.66
2023-03-19T21:11:20.516Z,98475.59
2023-03-19T21:13:48.992Z,98477.47
2023-03-19T21:16:18.375Z,98481.03
2023-03-19T21:18:45.383Z,98479.50
2023-03-19T21:21:14.761Z,98477.75
2023-03-19T21:23:55.530Z,98478.63
2023-03-19T21:26:23.185Z,98474.25
2023-03-19T21:28:53.660Z,98484.84
2023-03-19T21:31:24.275Z,98479.69
2023-03-19T21:33:51.626Z,98480.66
2023-03-19T21:36:18.847Z,98481.53
2023-03-19T21:38:45.644Z,98484.06
2023-03-19T21:41:24.423Z,98491.84
2023-03-19T21:43:57.305Z,98490.19
2023-03-19T21:46:26.404Z,98496.34
2023-03-19T21:48:55.197Z,98492.91
2023-03-19T21:51:27.845Z,98499.94
2023-03-19T21:53:54.517Z,98498.25
2023-03-19T21:56:24.238Z,98498.41
2023-03-19T21:58:52.731Z,98497.56
2023-03-19T22:01:24.787Z,98496.59
2023-03-19T22:03:57.600Z,98488.72
2023-03-19T22:06:25.224Z,98499.19
2023-03-19T22:08:54.064Z,98501.81
2023-03-19T22:11:34.485Z,98489.31
2023-03-19T22:14:25.519Z,98496.22
2023-03-19T22:16:56.321Z,98496.47
2023-03-19T22:19:23.140Z,98498.91
2023-03-19T22:21:49.684Z,98491.06
2023-03-19T22:24:16.189Z,98499.09
2023-03-19T22:26:46.437Z,98499.22
2023-03-19T22:29:23.584Z,98502.75
2023-03-19T22:31:51.935Z,98502.56
2023-03-19T22:34:30.052Z,98501.66
2023-03-19T22:36:56.704Z,98503.38
2023-03-19T22:39:23.208Z,98505.09
2023-03-19T22:41:50.035Z,98507.81
2023-03-19T22:44:25.444Z,98498.97
2023-03-19T22:46:53.087Z,98501.59
2023-03-19T22:49:19.545Z,98508.50
2023-03-19T22:51:46.330Z,98498.97
2023-03-19T22:54:13.154Z,98495.53
2023-03-19T22:56:39.705Z,98503.44
2023-03-19T22:59:10.856Z,98504.16
2023-03-19T23:01:46.353Z,98509.59
2023-03-19T23:04:21.423Z,98507.06
2023-03-19T23:06:48.388Z,98506.16
2023-03-19T23:09:17.222Z,98506.19
2023-03-19T23:11:44.056Z,98502.75
2023-03-19T23:14:25.917Z,98504.34
2023-03-19T23:19:38.340Z,98494.78
2023-03-19T23:22:06.735Z,98493.84
2023-03-19T23:24:33.833Z,98492.19
2023-03-19T23:27:01.433Z,98495.69
2023-03-19T23:29:35.995Z,98495.69
2023-03-19T23:32:13.578Z,98498.44
2023-03-19T23:34:56.419Z,98501.13
2023-03-19T23:37:28.215Z,98501.22
2023-03-19T23:39:54.717Z,98494.22
2023-03-19T23:42:28.873Z,98499.59
2023-03-19T23:44:57.890Z,98501.28
2023-03-19T23:47:24.458Z,98494.28
2023-03-19T23:49:51.163Z,98503.00
2023-03-19T23:52:17.682Z,98502.94
2023-03-19T23:54:44.192Z,98501.97
2023-03-19T23:57:15.007Z,98504.78
2023-03-19T23:59:49.305Z,98498.47
